Time;durP1;ratioP1;P1;durP2;ratioP2;P2;SDS_P1;SDS_P2;PMS_P1;PMS_P2;Temp;Humidity;BMP_temperature;BMP_pressure;BME280_temperature;BME280_humidity;BME280_pressure;Samples;Min_cycle;Max_cycle;Signal;HPM_P1;HPM_P2
2022/02/15 00:01:18;;;;;;;13.47;6.60;;;3.60;99.90;;;;;;6289416;28;20274;-72
2022/02/15 00:04:25;;;;;;;11.57;6.23;;;3.60;99.90;;;;;;6289769;28;20301;-72
2022/02/15 00:07:30;;;;;;;12.00;6.10;;;3.70;99.90;;;;;;6289669;28;20297;-72
2022/02/15 00:10:36;;;;;;;11.53;6.50;;;3.80;99.90;;;;;;6289437;28;20265;-72
2022/02/15 00:13:41;;;;;;;12.03;6.30;;;3.90;99.90;;;;;;6289256;28;20302;-71
2022/02/15 00:16:47;;;;;;;9.63;6.23;;;4.00;99.90;;;;;;6289443;28;20355;-71
2022/02/15 00:19:53;;;;;;;11.87;6.27;;;4.00;99.90;;;;;;6289171;28;20594;-72
2022/02/15 00:22:59;;;;;;;10.17;6.53;;;4.00;99.90;;;;;;6288724;28;20297;-72
2022/02/15 00:26:04;;;;;;;7.90;5.80;;;4.10;99.90;;;;;;6288926;28;20289;-71
2022/02/15 00:29:09;;;;;;;11.30;6.37;;;4.20;99.90;;;;;;6289506;28;20300;-72
2022/02/15 00:32:15;;;;;;;12.43;6.13;;;4.20;99.90;;;;;;6270762;28;20278;-72
2022/02/15 00:35:22;;;;;;;10.80;5.90;;;4.20;99.90;;;;;;6286490;28;20612;-71
2022/02/15 00:38:27;;;;;;;8.03;6.10;;;4.20;99.90;;;;;;6288658;28;20580;-71
2022/02/15 00:41:33;;;;;;;9.63;6.40;;;4.10;99.90;;;;;;6271416;28;20278;-72
2022/02/15 00:44:38;;;;;;;14.57;6.53;;;4.10;99.90;;;;;;6288880;28;20310;-72
2022/02/15 00:47:43;;;;;;;11.70;6.60;;;4.00;99.90;;;;;;6286941;28;20441;-72
2022/02/15 00:50:50;;;;;;;10.07;6.20;;;3.90;99.90;;;;;;6288551;28;20275;-71
2022/02/15 00:53:55;;;;;;;10.50;6.43;;;4.00;99.90;;;;;;6270612;28;20302;-72
2022/02/15 00:57:01;;;;;;;8.53;6.30;;;4.00;99.90;;;;;;6288014;28;20270;-71
2022/02/15 01:00:09;;;;;;;11.57;6.80;;;4.00;99.90;;;;;;6270529;28;20271;-72
2022/02/15 01:03:21;;;;;;;8.40;6.30;;;4.00;99.90;;;;;;6288297;28;20598;-72
2022/02/15 01:06:27;;;;;;;9.90;6.63;;;4.10;99.90;;;;;;6288517;28;20272;-71
2022/02/15 01:09:33;;;;;;;12.77;6.17;;;4.10;99.90;;;;;;6287792;28;20305;-72
2022/02/15 01:12:39;;;;;;;13.13;6.67;;;4.20;99.90;;;;;;6270318;28;20310;-71
2022/02/15 01:15:44;;;;;;;14.07;7.20;;;4.20;99.90;;;;;;6270667;28;20293;-72
2022/02/15 01:18:50;;;;;;;10.03;6.50;;;4.20;99.90;;;;;;6287756;28;20298;-72
2022/02/15 01:21:57;;;;;;;10.33;6.40;;;4.20;99.90;;;;;;6270145;28;20294;-72
2022/02/15 01:25:02;;;;;;;15.67;6.77;;;4.30;99.90;;;;;;6287352;28;20287;-72
2022/02/15 01:28:08;;;;;;;9.73;6.40;;;4.20;99.90;;;;;;6270087;28;20294;-72
2022/02/15 01:31:14;;;;;;;11.60;6.30;;;4.20;99.90;;;;;;6287309;28;20268;-72
2022/02/15 01:34:21;;;;;;;9.87;6.70;;;4.10;99.90;;;;;;6269311;28;20294;-71
2022/02/15 01:37:28;;;;;;;14.07;7.23;;;4.00;99.90;;;;;;6270396;28;20396;-72
2022/02/15 01:40:34;;;;;;;12.43;6.77;;;3.90;99.90;;;;;;6287339;28;20278;-72
2022/02/15 01:43:41;;;;;;;9.10;6.60;;;3.80;99.90;;;;;;6269808;28;20301;-72
2022/02/15 01:46:47;;;;;;;12.67;7.17;;;3.70;99.90;;;;;;6269433;28;20278;-71
2022/02/15 01:49:53;;;;;;;9.27;7.07;;;3.80;99.90;;;;;;6269934;28;20293;-71
2022/02/15 01:52:59;;;;;;;16.50;7.10;;;3.80;99.90;;;;;;6269334;28;20301;-72
2022/02/15 01:56:06;;;;;;;10.47;7.27;;;3.80;99.90;;;;;;6269486;28;20298;-72
2022/02/15 01:59:15;;;;;;;16.40;6.97;;;3.80;99.90;;;;;;6269018;28;20300;-72
2022/02/15 02:02:23;;;;;;;11.13;7.20;;;3.80;99.90;;;;;;6269261;28;20297;-72
2022/02/15 02:08:57;;;;;;;14.57;8.00;;;3.70;99.90;;;;;;6268829;28;20297;-72
2022/02/15 02:12:03;;;;;;;12.77;7.50;;;3.70;99.90;;;;;;6269036;28;20263;-72
2022/02/15 02:15:19;;;;;;;15.10;7.13;;;3.70;99.90;;;;;;6269699;28;20574;-72
2022/02/15 02:18:45;;;;;;;15.90;7.33;;;3.70;99.90;;;;;;6287090;28;20299;-72
2022/02/15 02:21:55;;;;;;;13.57;7.60;;;3.70;99.90;;;;;;6268584;28;20302;-73
2022/02/15 02:25:01;;;;;;;11.53;7.30;;;3.60;99.90;;;;;;6268053;28;20485;-73
2022/02/15 02:28:08;;;;;;;14.53;7.90;;;3.60;99.90;;;;;;6268234;28;20564;-72
2022/02/15 02:31:13;;;;;;;11.97;7.27;;;3.60;99.90;;;;;;6286400;28;20266;-72
2022/02/15 02:34:28;;;;;;;16.20;7.47;;;3.50;99.90;;;;;;6268408;28;20413;-72
2022/02/15 02:37:38;;;;;;;18.07;8.27;;;3.50;99.90;;;;;;6268408;28;20313;-72
2022/02/15 02:40:44;;;;;;;11.67;7.93;;;3.50;99.90;;;;;;6269271;28;20267;-72
2022/02/15 02:43:49;;;;;;;12.47;8.13;;;3.50;99.90;;;;;;6286021;28;20303;-73
2022/02/15 02:46:55;;;;;;;15.57;7.87;;;3.50;99.90;;;;;;6268883;28;20277;-72
2022/02/15 02:50:06;;;;;;;14.73;8.10;;;3.70;99.90;;;;;;6266878;28;20282;-71
2022/02/15 02:53:18;;;;;;;13.47;7.43;;;3.70;99.90;;;;;;6285538;28;20296;-71
2022/02/15 02:56:24;;;;;;;12.40;7.10;;;3.70;99.90;;;;;;6268199;28;20477;-71
2022/02/15 02:59:31;;;;;;;10.43;7.10;;;3.70;99.90;;;;;;6267453;28;20301;-72
2022/02/15 03:02:42;;;;;;;16.50;7.30;;;3.50;99.90;;;;;;6267561;28;20300;-72
2022/02/15 03:05:47;;;;;;;13.37;7.23;;;3.40;99.90;;;;;;6267848;28;20573;-72
2022/02/15 03:08:56;;;;;;;10.77;6.97;;;3.40;99.90;;;;;;6267297;28;20303;-72
2022/02/15 03:12:05;;;;;;;7.90;6.50;;;3.40;99.90;;;;;;6246235;28;20267;-72
2022/02/15 03:15:14;;;;;;;13.27;7.07;;;3.50;99.90;;;;;;6244145;28;20290;-72
2022/02/15 03:18:20;;;;;;;19.73;7.10;;;3.70;99.90;;;;;;6242962;28;20324;-71
2022/02/15 03:21:26;;;;;;;11.70;6.80;;;3.70;99.90;;;;;;6245293;28;20298;-71
2022/02/15 03:24:33;;;;;;;11.00;6.43;;;3.80;99.90;;;;;;6268135;28;20297;-71
2022/02/15 03:27:39;;;;;;;9.63;5.97;;;3.80;99.90;;;;;;6267244;28;20306;-71
2022/02/15 03:30:45;;;;;;;11.63;6.57;;;3.90;99.90;;;;;;6267653;28;20566;-71
2022/02/15 03:33:51;;;;;;;11.93;6.40;;;3.80;99.90;;;;;;6267342;28;20296;-71
2022/02/15 03:36:57;;;;;;;10.30;6.80;;;3.70;99.90;;;;;;6268150;28;20581;-71
2022/02/15 03:40:06;;;;;;;11.37;5.97;;;3.70;99.90;;;;;;6284928;28;20274;-71
2022/02/15 03:43:12;;;;;;;7.60;6.30;;;3.60;99.90;;;;;;6267691;28;20295;-72
2022/02/15 03:46:18;;;;;;;10.33;6.67;;;3.50;99.90;;;;;;6267665;28;20452;-71
2022/02/15 03:49:24;;;;;;;9.37;6.43;;;3.50;99.90;;;;;;6285638;28;20577;-71
2022/02/15 03:52:32;;;;;;;11.57;6.20;;;3.50;99.90;;;;;;6267540;28;20481;-71
2022/02/15 03:55:39;;;;;;;9.97;5.83;;;3.40;99.90;;;;;;6267765;28;20279;-71
2022/02/15 03:58:46;;;;;;;9.43;5.93;;;3.40;99.90;;;;;;6266818;28;20306;-71
2022/02/15 04:01:54;;;;;;;8.70;5.70;;;3.40;99.90;;;;;;6264738;28;20558;-71
2022/02/15 04:05:00;;;;;;;11.23;6.30;;;3.50;99.90;;;;;;6274308;28;20269;-72
2022/02/15 04:08:06;;;;;;;8.10;5.87;;;3.60;99.90;;;;;;6267024;28;20321;-72
2022/02/15 04:11:14;;;;;;;14.20;6.00;;;3.70;99.90;;;;;;6265660;28;20265;-72
2022/02/15 04:14:20;;;;;;;9.57;5.93;;;3.70;99.90;;;;;;6272053;28;20302;-72
2022/02/15 04:17:25;;;;;;;9.87;6.00;;;3.80;99.90;;;;;;6271984;28;20301;-72
2022/02/15 04:20:34;;;;;;;11.53;5.73;;;3.80;99.90;;;;;;6272092;28;20457;-72
2022/02/15 04:23:43;;;;;;;7.47;5.83;;;3.90;99.90;;;;;;6271760;28;20477;-72
2022/02/15 04:26:49;;;;;;;14.23;5.47;;;4.00;99.90;;;;;;6272371;28;20277;-72
2022/02/15 04:29:55;;;;;;;8.70;5.87;;;4.10;99.90;;;;;;6271500;28;20277;-72
2022/02/15 04:33:01;;;;;;;9.67;5.60;;;4.00;99.90;;;;;;6271497;28;20297;-70
2022/02/15 04:36:07;;;;;;;8.53;5.57;;;4.10;99.90;;;;;;6272008;28;20278;-72
2022/02/15 04:39:13;;;;;;;6.20;5.57;;;4.10;99.90;;;;;;6271402;28;20305;-71
2022/02/15 04:42:28;;;;;;;7.07;5.07;;;4.10;99.90;;;;;;6271385;28;20298;-72
2022/02/15 04:45:35;;;;;;;5.90;5.30;;;3.90;99.90;;;;;;6271733;28;20274;-72
2022/02/15 04:48:41;;;;;;;9.50;5.53;;;3.90;99.90;;;;;;6271001;28;20295;-72
2022/02/15 04:51:50;;;;;;;8.63;5.23;;;3.80;99.90;;;;;;6270966;28;20549;-71
2022/02/15 04:54:56;;;;;;;8.77;5.37;;;3.80;99.90;;;;;;6288751;28;20365;-71
2022/02/15 04:58:02;;;;;;;5.63;4.97;;;3.70;99.90;;;;;;6270715;28;20307;-72
2022/02/15 05:01:26;;;;;;;7.03;4.73;;;3.70;99.90;;;;;;6271709;28;20274;-72
2022/02/15 05:04:49;;;;;;;9.40;4.33;;;3.60;99.90;;;;;;6271139;28;20471;-72
2022/02/15 05:07:59;;;;;;;9.23;5.13;;;3.60;99.90;;;;;;6288558;28;20577;-71
2022/02/15 05:11:05;;;;;;;9.73;5.20;;;3.60;99.90;;;;;;6270436;28;20270;-71
2022/02/15 05:14:20;;;;;;;8.17;5.10;;;3.60;99.90;;;;;;6270714;28;20353;-72
2022/02/15 05:17:27;;;;;;;7.80;4.90;;;3.70;99.90;;;;;;6270274;28;20306;-71
2022/02/15 05:20:36;;;;;;;8.87;4.87;;;3.80;99.90;;;;;;6270537;28;20359;-71
2022/02/15 05:23:42;;;;;;;9.17;5.10;;;3.70;99.90;;;;;;6269393;28;20294;-72
2022/02/15 05:26:48;;;;;;;11.70;5.30;;;3.80;99.90;;;;;;6270412;28;20494;-71
2022/02/15 05:30:21;;;;;;;10.20;5.23;;;3.80;99.90;;;;;;6283117;28;20278;-71
2022/02/15 05:33:43;;;;;;;8.97;5.37;;;3.80;99.90;;;;;;6269072;28;20301;-72
2022/02/15 05:36:50;;;;;;;6.33;4.90;;;3.80;99.90;;;;;;6269791;28;20272;-72
2022/02/15 05:39:57;;;;;;;7.37;5.57;;;3.70;99.90;;;;;;6269687;28;20298;-71
2022/02/15 05:43:15;;;;;;;6.87;5.37;;;3.70;99.90;;;;;;6269420;28;20482;-72
2022/02/15 05:46:30;;;;;;;5.60;4.83;;;3.70;99.90;;;;;;6270201;28;20553;-72
2022/02/15 05:50:49;;;;;;;6.67;5.30;;;3.70;99.90;;;;;;6269158;28;20575;-72
2022/02/15 05:53:15;;;;;;;7.47;5.00;;;3.60;99.90;;;;;;6269624;28;20301;-72
2022/02/15 05:56:20;;;;;;;12.63;5.17;;;3.60;99.90;;;;;;6269745;28;20273;-72
2022/02/15 05:59:44;;;;;;;7.57;5.63;;;3.60;99.90;;;;;;6268395;28;20302;-72
2022/02/15 06:06:29;;;;;;;10.47;6.00;;;3.60;99.90;;;;;;6286206;28;20460;-71
2022/02/15 06:09:35;;;;;;;14.40;6.13;;;3.70;99.90;;;;;;6268318;28;20309;-71
2022/02/15 06:12:41;;;;;;;8.30;6.10;;;3.70;99.90;;;;;;6269155;28;20297;-72
2022/02/15 06:15:48;;;;;;;12.03;6.87;;;3.70;99.90;;;;;;6269623;28;20278;-72
2022/02/15 06:19:18;;;;;;;14.70;7.33;;;3.80;99.90;;;;;;6268497;28;20301;-72
2022/02/15 06:22:26;;;;;;;10.30;6.60;;;3.80;99.90;;;;;;6268123;28;20386;-72
2022/02/15 06:25:33;;;;;;;9.33;6.00;;;3.70;99.90;;;;;;6268628;28;20273;-71
2022/02/15 06:28:38;;;;;;;9.37;6.10;;;3.60;99.90;;;;;;6268661;28;20309;-72
2022/02/15 06:31:54;;;;;;;8.33;5.93;;;3.60;99.90;;;;;;6269112;28;20279;-71
2022/02/15 06:35:01;;;;;;;12.83;5.93;;;3.50;99.90;;;;;;6267971;28;20551;-72
2022/02/15 06:38:07;;;;;;;13.43;6.10;;;3.60;99.90;;;;;;6268425;28;20297;-72
2022/02/15 06:41:13;;;;;;;10.93;5.90;;;3.60;99.90;;;;;;6269189;28;20543;-72
2022/02/15 06:44:30;;;;;;;10.77;6.07;;;3.60;99.90;;;;;;6268788;28;20301;-71
2022/02/15 06:47:37;;;;;;;12.30;6.17;;;3.60;99.90;;;;;;6267915;28;20298;-72
2022/02/15 06:50:45;;;;;;;14.07;6.60;;;3.70;99.90;;;;;;6268309;28;20552;-72
2022/02/15 06:54:04;;;;;;;12.07;6.27;;;3.70;99.90;;;;;;6268448;28;20297;-71
2022/02/15 06:57:21;;;;;;;9.87;6.53;;;3.70;99.90;;;;;;6268230;28;20293;-72
2022/02/15 07:00:28;;;;;;;12.47;7.20;;;3.70;99.90;;;;;;6268386;28;20290;-72
2022/02/15 07:03:33;;;;;;;14.63;7.10;;;3.70;99.90;;;;;;6285760;28;20302;-73
2022/02/15 07:06:43;;;;;;;11.33;6.60;;;3.70;99.90;;;;;;6268159;28;20436;-71
2022/02/15 07:09:49;;;;;;;8.97;6.97;;;3.70;99.90;;;;;;6264272;28;20309;-72
2022/02/15 07:13:01;;;;;;;7.33;6.40;;;3.80;99.90;;;;;;6283985;28;20304;-71
2022/02/15 07:16:11;;;;;;;10.60;6.43;;;3.80;99.90;;;;;;6267613;28;20278;-71
2022/02/15 07:19:17;;;;;;;9.10;6.60;;;3.90;99.90;;;;;;6266955;28;20301;-72
2022/02/15 07:22:42;;;;;;;11.70;6.60;;;3.90;99.90;;;;;;6261941;28;20303;-72
2022/02/15 07:26:11;;;;;;;10.33;6.87;;;4.00;99.90;;;;;;6243989;28;20274;-71
2022/02/15 07:29:44;;;;;;;11.03;6.67;;;4.00;99.90;;;;;;6257031;28;20301;-71
2022/02/15 07:32:59;;;;;;;12.83;6.20;;;4.10;99.90;;;;;;6242197;28;20327;-71
2022/02/15 07:36:11;;;;;;;12.93;6.73;;;4.10;99.90;;;;;;6244342;28;20279;-72
2022/02/15 07:39:18;;;;;;;13.87;6.20;;;4.10;99.90;;;;;;6259919;28;20298;-71
2022/02/15 07:42:25;;;;;;;13.47;6.67;;;4.20;99.90;;;;;;6260398;28;20298;-72
2022/02/15 07:45:32;;;;;;;13.50;6.17;;;4.20;99.90;;;;;;6245513;28;20278;-71
2022/02/15 07:48:37;;;;;;;13.23;6.67;;;4.20;99.90;;;;;;6264827;28;20299;-73
2022/02/15 07:51:43;;;;;;;13.50;7.00;;;4.30;99.90;;;;;;6265618;28;20283;-72
2022/02/15 07:54:49;;;;;;;13.73;6.57;;;4.30;99.90;;;;;;6264814;28;20299;-72
2022/02/15 07:57:55;;;;;;;10.47;6.17;;;4.30;99.90;;;;;;6265128;28;20310;-72
2022/02/15 08:01:00;;;;;;;7.90;6.03;;;4.30;99.90;;;;;;6265093;28;20292;-72
2022/02/15 08:04:06;;;;;;;10.23;6.07;;;4.30;99.90;;;;;;6264980;28;20293;-72
2022/02/15 08:07:12;;;;;;;10.13;6.23;;;4.40;99.90;;;;;;6246463;28;20273;-72
2022/02/15 08:10:20;;;;;;;9.60;6.10;;;4.40;99.90;;;;;;6265363;28;20459;-72
2022/02/15 08:13:33;;;;;;;10.23;5.83;;;4.40;99.90;;;;;;6264425;28;20297;-72
2022/02/15 08:16:39;;;;;;;12.17;6.27;;;4.40;99.90;;;;;;6265151;28;20275;-71
2022/02/15 08:19:44;;;;;;;8.83;6.23;;;4.50;99.90;;;;;;6264059;28;20572;-72
2022/02/15 08:22:50;;;;;;;10.93;6.60;;;4.50;99.90;;;;;;6263832;28;20310;-72
2022/02/15 08:25:56;;;;;;;16.40;7.00;;;4.50;99.90;;;;;;6265101;28;20278;-71
2022/02/15 08:29:02;;;;;;;14.20;6.57;;;4.50;99.90;;;;;;6264204;28;20299;-72
2022/02/15 08:32:08;;;;;;;13.53;5.97;;;4.50;99.90;;;;;;6264165;28;20273;-71
2022/02/15 08:35:15;;;;;;;13.07;6.30;;;4.60;99.90;;;;;;6264501;28;20284;-71
2022/02/15 08:38:20;;;;;;;13.33;6.43;;;4.60;99.90;;;;;;6264461;28;20303;-71
2022/02/15 08:41:27;;;;;;;12.20;6.47;;;4.60;99.90;;;;;;6247125;28;20298;-72
2022/02/15 08:44:34;;;;;;;8.27;6.43;;;4.60;99.90;;;;;;6264434;28;20303;-72
2022/02/15 08:47:40;;;;;;;13.43;7.47;;;4.60;99.90;;;;;;6263902;28;20458;-72
2022/02/15 08:50:51;;;;;;;12.40;7.37;;;4.60;99.90;;;;;;6263962;28;20272;-71
2022/02/15 08:53:57;;;;;;;13.60;7.23;;;4.60;99.90;;;;;;6263407;28;20450;-71
2022/02/15 08:57:05;;;;;;;9.63;6.90;;;4.50;99.90;;;;;;6262190;28;20272;-71
2022/02/15 09:00:15;;;;;;;17.73;8.30;;;4.60;99.90;;;;;;6247314;28;20274;-72
2022/02/15 09:03:21;;;;;;;17.23;8.17;;;4.80;99.90;;;;;;6263236;28;20302;-72
2022/02/15 09:06:26;;;;;;;12.63;7.97;;;4.80;99.90;;;;;;6263893;28;20454;-72
2022/02/15 09:09:32;;;;;;;12.47;7.47;;;4.90;99.90;;;;;;6262052;28;20295;-72
2022/02/15 09:12:39;;;;;;;17.77;8.30;;;5.00;99.90;;;;;;6240706;28;20307;-72
2022/02/15 09:15:44;;;;;;;13.87;8.27;;;5.20;99.90;;;;;;6263598;28;20454;-71
2022/02/15 09:18:50;;;;;;;14.10;7.77;;;5.10;99.90;;;;;;6262816;28;20300;-71
2022/02/15 09:21:56;;;;;;;15.67;8.27;;;5.00;99.90;;;;;;6275110;28;20500;-73
2022/02/15 09:25:02;;;;;;;17.90;7.90;;;5.00;99.90;;;;;;6287532;28;20274;-71
2022/02/15 09:28:08;;;;;;;17.87;8.93;;;5.00;99.90;;;;;;6287120;28;20297;-72
2022/02/15 09:31:14;;;;;;;22.77;9.93;;;5.00;99.90;;;;;;6287622;28;20275;-71
2022/02/15 09:34:23;;;;;;;20.37;10.63;;;5.00;99.90;;;;;;6287132;28;20298;-72
2022/02/15 09:37:28;;;;;;;23.80;11.67;;;5.10;99.90;;;;;;6286998;28;20311;-72
2022/02/15 09:40:33;;;;;;;19.87;11.30;;;5.30;99.90;;;;;;6287262;28;20469;-72
2022/02/15 09:43:41;;;;;;;23.20;11.30;;;5.40;99.90;;;;;;6286868;28;20327;-72
2022/02/15 09:46:48;;;;;;;23.17;12.13;;;5.40;99.90;;;;;;6288291;28;20268;-71
2022/02/15 09:49:54;;;;;;;21.97;11.23;;;5.50;99.90;;;;;;6287003;28;20485;-71
2022/02/15 09:53:01;;;;;;;26.00;12.00;;;5.50;99.90;;;;;;6287539;28;20294;-71
2022/02/15 09:56:07;;;;;;;18.40;10.53;;;5.60;99.90;;;;;;6288117;28;20268;-71
2022/02/15 09:59:15;;;;;;;15.73;11.17;;;5.70;99.90;;;;;;6287284;28;20318;-71
2022/02/15 10:02:24;;;;;;;22.77;11.47;;;5.70;99.90;;;;;;6286322;28;20368;-72
2022/02/15 10:05:33;;;;;;;18.20;11.10;;;5.70;99.90;;;;;;6287140;28;20269;-72
2022/02/15 10:08:39;;;;;;;21.67;11.27;;;5.70;99.90;;;;;;6286595;28;20589;-72
2022/02/15 10:11:45;;;;;;;20.90;10.03;;;5.80;99.90;;;;;;6286964;28;20268;-72
2022/02/15 10:14:55;;;;;;;17.30;10.37;;;5.80;99.90;;;;;;6286895;28;20299;-72
2022/02/15 10:18:06;;;;;;;20.83;10.67;;;5.90;99.90;;;;;;6286724;28;20588;-72
2022/02/15 10:21:16;;;;;;;23.97;10.43;;;5.90;99.90;;;;;;6286583;28;20592;-72
2022/02/15 10:24:22;;;;;;;16.83;9.57;;;6.00;99.90;;;;;;6286912;28;20297;-72
2022/02/15 10:27:30;;;;;;;22.97;10.00;;;6.00;99.90;;;;;;6268595;28;20514;-71
2022/02/15 10:30:38;;;;;;;15.90;8.63;;;5.80;99.90;;;;;;6287257;28;20270;-71
2022/02/15 10:33:45;;;;;;;15.60;8.97;;;5.70;99.90;;;;;;6286649;28;20304;-72
2022/02/15 10:36:59;;;;;;;14.97;9.00;;;5.70;99.90;;;;;;6286579;28;20456;-72
2022/02/15 10:40:09;;;;;;;17.33;9.33;;;5.80;99.90;;;;;;6285275;28;20281;-71
2022/02/15 10:43:15;;;;;;;18.17;8.70;;;5.90;99.90;;;;;;6285468;28;20301;-72
2022/02/15 10:46:24;;;;;;;16.40;8.60;;;5.90;99.90;;;;;;6286963;28;20445;-71
2022/02/15 10:49:31;;;;;;;18.83;8.47;;;6.00;99.90;;;;;;6286459;28;20292;-71
2022/02/15 10:52:37;;;;;;;19.93;8.73;;;6.10;99.90;;;;;;6285532;28;20318;-72
2022/02/15 10:55:42;;;;;;;12.77;8.80;;;6.10;99.90;;;;;;6285675;28;20274;-71
2022/02/15 10:58:49;;;;;;;15.90;8.53;;;6.20;99.90;;;;;;6285605;28;20300;-72
2022/02/15 11:01:56;;;;;;;15.70;7.80;;;6.20;99.90;;;;;;6285602;28;20477;-71
2022/02/15 11:05:20;;;;;;;12.47;7.57;;;6.20;99.90;;;;;;6285251;28;20443;-71
2022/02/15 11:08:26;;;;;;;11.93;7.57;;;6.20;99.90;;;;;;6285723;28;20480;-72
2022/02/15 11:11:47;;;;;;;8.47;6.97;;;6.30;99.90;;;;;;6286117;28;20276;-72
2022/02/15 11:14:56;;;;;;;12.93;7.67;;;6.30;99.90;;;;;;6285168;28;20298;-71
2022/02/15 11:18:05;;;;;;;12.47;8.07;;;6.30;99.90;;;;;;6285760;28;20304;-71
2022/02/15 11:21:23;;;;;;;15.50;7.67;;;6.40;99.90;;;;;;6271789;28;20305;-71
2022/02/15 11:24:28;;;;;;;12.00;7.37;;;6.40;99.90;;;;;;6290827;28;20305;-73
2022/02/15 11:27:35;;;;;;;12.87;7.50;;;6.50;99.90;;;;;;6288568;28;20581;-72
2022/02/15 11:30:48;;;;;;;12.03;7.57;;;6.40;99.90;;;;;;6290315;28;20276;-71
2022/02/15 11:33:55;;;;;;;15.57;8.00;;;6.40;99.90;;;;;;6290536;28;20305;-71
2022/02/15 11:37:01;;;;;;;9.87;7.57;;;6.40;99.90;;;;;;6290291;28;20270;-72
2022/02/15 11:40:34;;;;;;;10.30;6.70;;;6.40;99.90;;;;;;6290346;28;20460;-73
2022/02/15 11:43:40;;;;;;;11.60;7.23;;;6.40;99.90;;;;;;6290291;28;20302;-72
2022/02/15 11:46:46;;;;;;;14.13;7.40;;;6.40;99.90;;;;;;6290256;28;20465;-72
2022/02/15 11:49:55;;;;;;;11.93;6.93;;;6.40;99.90;;;;;;6289702;28;20302;-73
2022/02/15 11:53:00;;;;;;;11.00;7.17;;;6.40;99.90;;;;;;6290047;28;20301;-74
2022/02/15 11:56:08;;;;;;;13.07;7.63;;;6.40;99.90;;;;;;6289827;28;20276;-73
2022/02/15 11:59:15;;;;;;;9.63;7.83;;;6.40;99.90;;;;;;6290077;28;20602;-73
2022/02/15 12:02:26;;;;;;;13.93;7.83;;;6.40;99.90;;;;;;6289116;28;20468;-73
2022/02/15 12:05:40;;;;;;;11.07;7.60;;;6.30;99.90;;;;;;6289512;28;20273;-72
2022/02/15 12:08:55;;;;;;;13.93;7.67;;;6.30;99.90;;;;;;6289834;28;20318;-72
2022/02/15 12:12:01;;;;;;;13.77;8.10;;;6.30;99.90;;;;;;6289339;28;20268;-73
2022/02/15 12:15:09;;;;;;;10.03;7.03;;;6.30;99.90;;;;;;6289761;28;20428;-72
2022/02/15 12:18:30;;;;;;;14.67;7.20;;;6.30;99.90;;;;;;6289478;28;20307;-73
2022/02/15 12:21:40;;;;;;;12.57;7.07;;;6.30;99.90;;;;;;6289500;28;20322;-71
2022/02/15 12:24:51;;;;;;;11.67;6.93;;;6.30;99.90;;;;;;6289169;28;20302;-71
2022/02/15 12:28:00;;;;;;;9.77;7.13;;;6.20;99.90;;;;;;6288796;28;20299;-72
2022/02/15 12:31:08;;;;;;;10.90;7.80;;;6.20;99.90;;;;;;6289471;28;20448;-71
2022/02/15 12:34:14;;;;;;;13.87;7.37;;;6.20;99.90;;;;;;6289437;28;20300;-71
2022/02/15 12:37:23;;;;;;;14.77;7.40;;;6.20;99.90;;;;;;6288590;28;20302;-72
2022/02/15 12:40:29;;;;;;;11.00;6.97;;;6.20;99.90;;;;;;6289960;28;20266;-72
2022/02/15 12:43:35;;;;;;;9.87;7.53;;;6.30;99.90;;;;;;6288777;28;20302;-73
2022/02/15 12:46:40;;;;;;;14.23;6.80;;;6.30;99.90;;;;;;6288764;28;20275;-73
2022/02/15 12:49:45;;;;;;;14.60;7.17;;;6.20;99.90;;;;;;6270609;28;20301;-72
2022/02/15 12:52:54;;;;;;;10.77;6.87;;;6.20;99.90;;;;;;6289081;28;20302;-72
2022/02/15 12:56:06;;;;;;;10.33;6.90;;;6.10;99.90;;;;;;6289123;28;20278;-72
2022/02/15 12:59:11;;;;;;;11.23;7.23;;;6.10;99.90;;;;;;6288107;28;20580;-72
2022/02/15 13:02:17;;;;;;;10.77;6.70;;;6.10;99.90;;;;;;6288301;28;20286;-72
2022/02/15 13:05:32;;;;;;;8.60;6.93;;;6.00;99.90;;;;;;6271138;28;20294;-72
2022/02/15 13:08:45;;;;;;;11.50;6.67;;;6.10;99.90;;;;;;6287869;28;20297;-72
2022/02/15 13:11:58;;;;;;;12.93;7.33;;;6.10;99.90;;;;;;6288531;28;20297;-72
2022/02/15 13:15:05;;;;;;;8.83;6.80;;;6.10;99.90;;;;;;6287939;28;20282;-72
2022/02/15 13:18:19;;;;;;;16.60;6.47;;;6.20;99.90;;;;;;6288047;28;20294;-72
2022/02/15 13:21:27;;;;;;;10.97;6.63;;;6.10;99.90;;;;;;6288259;28;20298;-73
2022/02/15 13:24:34;;;;;;;7.30;5.63;;;6.10;99.90;;;;;;6287526;28;20312;-72
2022/02/15 13:27:40;;;;;;;10.67;5.80;;;6.00;99.90;;;;;;6287586;28;20294;-73
2022/02/15 13:30:48;;;;;;;10.20;5.83;;;6.00;99.90;;;;;;6288497;28;20277;-72
2022/02/15 13:33:56;;;;;;;10.87;6.93;;;6.10;99.90;;;;;;6287782;28;20302;-72
2022/02/15 13:37:04;;;;;;;8.43;5.23;;;6.10;99.90;;;;;;6287287;28;20274;-73
2022/02/15 13:40:12;;;;;;;11.70;5.90;;;6.20;99.90;;;;;;6287936;28;20274;-72
2022/02/15 13:43:22;;;;;;;8.40;5.47;;;6.10;99.90;;;;;;6286517;28;20297;-72
2022/02/15 13:46:28;;;;;;;7.90;4.87;;;6.00;99.90;;;;;;6287210;28;20290;-73
2022/02/15 13:49:33;;;;;;;7.73;5.20;;;5.90;99.90;;;;;;6287384;28;20306;-72
2022/02/15 13:52:38;;;;;;;6.83;5.43;;;6.00;99.90;;;;;;6286792;28;20305;-73
2022/02/15 13:55:47;;;;;;;7.07;5.40;;;5.90;99.90;;;;;;6287197;28;20277;-72
2022/02/15 13:58:53;;;;;;;8.83;5.53;;;5.80;99.90;;;;;;6287450;28;20553;-72
2022/02/15 14:01:58;;;;;;;10.67;5.57;;;5.80;99.90;;;;;;6286379;28;20517;-72
2022/02/15 14:05:03;;;;;;;6.10;4.83;;;5.80;99.90;;;;;;6286688;28;20288;-72
2022/02/15 14:08:18;;;;;;;6.53;4.40;;;5.80;99.90;;;;;;6286510;28;20303;-72
2022/02/15 14:11:26;;;;;;;5.50;5.00;;;5.80;99.90;;;;;;6286992;28;20266;-72
2022/02/15 14:14:31;;;;;;;8.40;4.50;;;5.70;99.90;;;;;;6286115;28;20314;-72
2022/02/15 14:17:41;;;;;;;10.63;4.90;;;5.60;99.90;;;;;;6286359;28;20298;-72
2022/02/15 14:20:47;;;;;;;5.00;4.50;;;5.60;99.90;;;;;;6287143;28;20306;-72
2022/02/15 14:23:53;;;;;;;5.27;4.77;;;5.60;99.90;;;;;;6286012;28;20297;-72
2022/02/15 14:26:59;;;;;;;6.00;5.00;;;5.50;99.90;;;;;;6286171;28;20288;-72
2022/02/15 14:30:09;;;;;;;9.53;5.10;;;5.40;99.90;;;;;;6286311;28;20457;-72
2022/02/15 14:33:20;;;;;;;7.43;4.23;;;5.40;99.90;;;;;;6286475;28;20293;-73
2022/02/15 14:36:25;;;;;;;7.20;4.43;;;5.40;99.90;;;;;;6287076;28;20277;-73
2022/02/15 14:39:31;;;;;;;9.90;4.30;;;5.40;99.90;;;;;;6286274;28;20302;-72
2022/02/15 14:42:38;;;;;;;4.57;4.20;;;5.30;99.90;;;;;;6286139;28;20328;-73
2022/02/15 14:45:45;;;;;;;4.07;3.70;;;5.30;99.90;;;;;;6285915;28;20288;-73
2022/02/15 14:48:51;;;;;;;4.80;4.10;;;5.30;99.90;;;;;;6286397;28;20297;-73
2022/02/15 14:51:58;;;;;;;5.27;4.37;;;5.30;99.90;;;;;;6285945;28;20269;-73
2022/02/15 14:55:05;;;;;;;5.37;3.70;;;5.30;99.90;;;;;;6285919;28;20273;-73
2022/02/15 14:58:12;;;;;;;6.43;4.27;;;5.20;99.90;;;;;;6285476;28;20483;-73
2022/02/15 15:01:17;;;;;;;7.53;4.17;;;5.20;99.90;;;;;;6286805;28;20277;-73
2022/02/15 15:04:22;;;;;;;8.87;4.10;;;5.10;99.90;;;;;;6286282;28;20297;-73
2022/02/15 15:07:28;;;;;;;6.77;4.00;;;5.10;99.90;;;;;;6284883;28;20300;-73
2022/02/15 15:10:37;;;;;;;9.10;3.77;;;5.10;99.90;;;;;;6285529;28;20278;-72
2022/02/15 15:13:44;;;;;;;6.13;3.40;;;5.10;99.90;;;;;;6286273;28;20298;-74
2022/02/15 15:16:50;;;;;;;7.57;4.20;;;5.00;99.90;;;;;;6285948;28;20277;-73
2022/02/15 15:19:55;;;;;;;9.17;4.20;;;5.00;99.90;;;;;;6285161;28;20300;-73
2022/02/15 15:23:01;;;;;;;4.23;3.50;;;4.90;99.90;;;;;;6285337;28;20467;-72
2022/02/15 15:26:06;;;;;;;6.20;3.70;;;5.00;99.90;;;;;;6285395;28;20292;-72
2022/02/15 15:29:13;;;;;;;6.10;4.17;;;4.80;99.90;;;;;;6285701;28;20384;-72
2022/02/15 15:32:19;;;;;;;6.00;4.20;;;4.80;99.90;;;;;;6284677;28;20292;-72
2022/02/15 15:35:27;;;;;;;4.73;3.33;;;4.70;99.90;;;;;;6284925;28;20273;-72
2022/02/15 15:38:32;;;;;;;3.47;3.00;;;4.60;99.90;;;;;;6284868;28;20293;-73
2022/02/15 15:41:39;;;;;;;5.97;3.70;;;4.60;99.90;;;;;;6286059;28;20272;-73
2022/02/15 15:44:49;;;;;;;4.77;3.50;;;4.60;99.90;;;;;;6285218;28;20300;-73
2022/02/15 15:47:54;;;;;;;6.00;2.87;;;4.60;99.90;;;;;;6285493;28;20301;-73
2022/02/15 15:51:01;;;;;;;4.00;3.30;;;4.50;99.90;;;;;;6286106;28;20277;-72
2022/02/15 15:54:08;;;;;;;3.27;3.03;;;4.50;99.90;;;;;;6285097;28;20296;-73
2022/02/15 15:57:13;;;;;;;3.37;2.53;;;4.50;99.90;;;;;;6284695;28;20280;-74
2022/02/15 16:00:20;;;;;;;2.77;2.57;;;4.50;99.90;;;;;;6286122;28;20552;-72
2022/02/15 16:03:46;;;;;;;2.20;2.20;;;4.40;99.90;;;;;;6284954;28;20297;-73
2022/02/15 16:06:53;;;;;;;2.53;2.30;;;4.40;99.90;;;;;;6287144;28;20404;-74
2022/02/15 16:10:19;;;;;;;2.47;2.27;;;4.40;99.90;;;;;;6288919;28;20276;-72
2022/02/15 16:13:24;;;;;;;2.00;1.80;;;4.40;99.90;;;;;;6289628;28;20316;-72
2022/02/15 16:16:31;;;;;;;1.70;1.70;;;4.40;99.90;;;;;;6289749;28;20276;-72
2022/02/15 16:19:37;;;;;;;2.23;1.90;;;4.40;99.90;;;;;;6289215;28;20298;-72
2022/02/15 16:22:42;;;;;;;3.30;1.93;;;4.40;99.90;;;;;;6289262;28;20296;-73
2022/02/15 16:25:48;;;;;;;2.60;1.80;;;4.40;99.90;;;;;;6290276;28;20274;-72
2022/02/15 16:28:53;;;;;;;1.60;1.60;;;4.40;99.90;;;;;;6288767;28;20297;-72
2022/02/15 16:32:04;;;;;;;1.73;1.63;;;4.50;99.90;;;;;;6288669;28;20293;-73